Time;durP1;ratioP1;P1;durP2;ratioP2;P2;SDS_P1;SDS_P2;PMS_P1;PMS_P2;Temp;Humidity;BMP_temperature;BMP_pressure;BME280_temperature;BME280_humidity;BME280_pressure;Samples;Min_cycle;Max_cycle;Signal;HPM_P1;HPM_P2
2022/05/16 00:01:51;;;;;;;11.95;4.40;;;13.80;99.90;;;;;;4956602;28;20130;-77
2022/05/16 00:04:17;;;;;;;14.13;4.00;;;13.90;99.90;;;;;;4955447;29;20047;-78
2022/05/16 00:06:42;;;;;;;14.80;4.07;;;13.90;99.90;;;;;;4956381;29;20126;-77
2022/05/16 00:09:08;;;;;;;15.45;4.18;;;13.80;99.90;;;;;;4955429;28;20093;-78
2022/05/16 00:11:35;;;;;;;14.25;5.10;;;13.80;99.90;;;;;;4955930;29;20067;-77
2022/05/16 00:14:01;;;;;;;12.18;3.92;;;13.80;99.90;;;;;;4956271;29;20059;-78
2022/05/16 00:16:26;;;;;;;13.93;4.13;;;13.80;99.90;;;;;;4956002;29;20352;-78
2022/05/16 00:18:52;;;;;;;13.88;4.55;;;13.80;99.90;;;;;;4971181;28;20055;-78
2022/05/16 00:21:19;;;;;;;17.83;4.50;;;13.80;99.90;;;;;;4956784;29;20051;-77
2022/05/16 00:23:45;;;;;;;13.15;4.00;;;13.80;99.90;;;;;;4956662;28;20061;-78
2022/05/16 00:26:11;;;;;;;15.65;4.57;;;13.70;99.90;;;;;;4971601;28;20472;-75
2022/05/16 00:28:37;;;;;;;15.05;4.00;;;13.80;99.90;;;;;;4956251;29;20045;-78
2022/05/16 00:31:04;;;;;;;17.40;4.25;;;13.80;99.90;;;;;;4956504;28;20503;-79
2022/05/16 00:33:30;;;;;;;14.55;3.45;;;13.80;99.90;;;;;;4956116;28;20568;-78
2022/05/16 00:35:56;;;;;;;14.23;3.57;;;13.80;99.90;;;;;;4955582;29;20069;-78
2022/05/16 00:38:21;;;;;;;18.77;4.60;;;13.70;99.90;;;;;;4956259;29;20126;-77
2022/05/16 00:40:47;;;;;;;13.00;3.72;;;13.70;99.90;;;;;;4955305;29;20329;-78
2022/05/16 00:43:14;;;;;;;11.32;3.60;;;13.70;99.90;;;;;;4955715;28;20051;-77
2022/05/16 00:45:41;;;;;;;10.55;4.07;;;13.70;99.90;;;;;;4955831;29;20132;-78
2022/05/16 00:48:07;;;;;;;10.63;4.03;;;13.70;99.90;;;;;;4955591;28;20055;-78
2022/05/16 00:50:39;;;;;;;12.73;3.92;;;13.70;99.90;;;;;;4954797;29;20053;-77
2022/05/16 00:53:05;;;;;;;12.40;4.10;;;13.70;99.90;;;;;;4954910;29;20387;-78
2022/05/16 00:55:34;;;;;;;15.25;4.30;;;13.70;99.90;;;;;;4955946;28;20078;-77
2022/05/16 00:58:08;;;;;;;15.32;4.45;;;13.70;99.90;;;;;;4954645;29;20070;-77
2022/05/16 01:00:39;;;;;;;12.50;3.95;;;13.70;99.90;;;;;;4939095;29;20055;-77
2022/05/16 01:05:59;;;;;;;13.07;4.07;;;13.60;99.90;;;;;;4955804;29;20051;-79
2022/05/16 01:08:26;;;;;;;15.38;4.57;;;13.70;99.90;;;;;;4954752;29;20050;-79
2022/05/16 01:10:55;;;;;;;13.25;4.00;;;13.70;99.90;;;;;;4955409;28;20067;-79
2022/05/16 01:13:26;;;;;;;14.55;3.95;;;13.60;99.90;;;;;;4955372;28;20055;-78
2022/05/16 01:15:53;;;;;;;14.82;4.22;;;13.60;99.90;;;;;;4955952;28;20043;-78
2022/05/16 01:18:22;;;;;;;13.10;3.75;;;13.60;99.90;;;;;;4954197;29;20063;-77
2022/05/16 01:20:56;;;;;;;8.90;3.83;;;13.60;99.90;;;;;;4955453;29;20047;-78
2022/05/16 01:23:25;;;;;;;13.98;4.80;;;13.50;99.90;;;;;;4955800;28;20087;-77
2022/05/16 01:25:52;;;;;;;13.40;3.58;;;13.50;99.90;;;;;;4957513;28;20110;-78
2022/05/16 01:28:21;;;;;;;14.77;4.57;;;13.50;99.90;;;;;;4960944;29;20122;-77
2022/05/16 01:30:49;;;;;;;13.43;3.85;;;13.50;99.90;;;;;;4959084;28;20098;-80
2022/05/16 01:33:20;;;;;;;15.00;4.50;;;13.40;99.90;;;;;;4958388;29;20059;-77
2022/05/16 01:35:47;;;;;;;12.48;4.47;;;13.40;99.90;;;;;;4958962;29;20059;-78
2022/05/16 01:38:26;;;;;;;12.60;3.53;;;13.40;99.90;;;;;;4961171;29;20067;-78
2022/05/16 01:40:54;;;;;;;13.40;3.60;;;13.40;99.90;;;;;;4959988;28;20352;-78
2022/05/16 01:43:22;;;;;;;17.63;4.47;;;13.40;99.90;;;;;;4958342;28;20051;-79
2022/05/16 01:45:49;;;;;;;12.02;3.70;;;13.40;99.90;;;;;;4958824;29;20075;-78
2022/05/16 01:48:16;;;;;;;11.80;3.80;;;13.40;99.90;;;;;;4974113;28;20090;-79
2022/05/16 01:50:44;;;;;;;14.18;3.97;;;13.40;99.90;;;;;;4957160;29;20062;-79
2022/05/16 01:53:11;;;;;;;10.25;3.40;;;13.40;99.90;;;;;;4957757;28;20050;-78
2022/05/16 01:55:37;;;;;;;16.98;4.28;;;13.30;99.90;;;;;;4959328;29;20127;-77
2022/05/16 01:58:03;;;;;;;14.98;3.58;;;13.30;99.90;;;;;;4959035;29;20043;-78
2022/05/16 02:00:32;;;;;;;12.95;3.85;;;13.30;99.90;;;;;;4955938;28;20439;-78
2022/05/16 02:02:59;;;;;;;14.80;4.20;;;13.30;99.90;;;;;;4953674;29;20051;-78
2022/05/16 02:05:25;;;;;;;11.75;4.18;;;13.20;99.90;;;;;;4954994;29;20111;-79
2022/05/16 02:07:51;;;;;;;15.02;3.72;;;13.30;99.90;;;;;;4955258;28;20146;-78
2022/05/16 02:10:19;;;;;;;12.73;4.10;;;13.20;99.90;;;;;;4953374;28;20097;-79
2022/05/16 02:12:45;;;;;;;12.82;4.15;;;13.20;99.90;;;;;;4954683;29;20059;-78
2022/05/16 02:15:14;;;;;;;15.13;4.20;;;13.20;99.90;;;;;;4953541;29;20047;-79
2022/05/16 02:17:41;;;;;;;10.75;3.72;;;13.10;99.90;;;;;;4954260;28;20051;-80
2022/05/16 02:20:08;;;;;;;12.43;3.58;;;13.10;99.90;;;;;;4954839;28;20514;-79
2022/05/16 02:25:18;;;;;;;18.92;5.47;;;13.10;99.90;;;;;;4955228;28;20483;-79
2022/05/16 02:27:46;;;;;;;11.23;3.80;;;13.10;99.90;;;;;;4958212;28;20050;-77
2022/05/16 02:30:13;;;;;;;11.98;3.72;;;13.10;99.90;;;;;;4957351;29;20190;-79
2022/05/16 02:32:39;;;;;;;;;;;13.10;99.90;;;;;;4973899;28;20048;-78
2022/05/16 02:35:05;;;;;;;12.77;3.60;;;13.00;99.90;;;;;;4959316;28;19926;-78
2022/05/16 02:37:32;;;;;;;9.52;3.38;;;13.00;99.90;;;;;;4941731;29;20066;-77
2022/05/16 02:39:57;;;;;;;12.20;4.07;;;13.00;99.90;;;;;;4958085;29;20047;-78
2022/05/16 02:42:23;;;;;;;16.05;3.75;;;13.00;99.90;;;;;;4958331;29;20050;-78
2022/05/16 02:44:52;;;;;;;10.88;4.00;;;12.90;99.90;;;;;;4957697;29;20409;-79
2022/05/16 02:47:20;;;;;;;12.32;3.35;;;12.90;99.90;;;;;;4958411;29;20051;-78
2022/05/16 02:49:46;;;;;;;13.15;3.75;;;12.90;99.90;;;;;;4959520;28;20057;-78
2022/05/16 02:52:12;;;;;;;15.10;3.67;;;12.80;99.90;;;;;;4961910;29;20090;-77
2022/05/16 02:54:38;;;;;;;14.38;3.75;;;12.80;99.90;;;;;;4958617;29;20050;-79
2022/05/16 02:57:05;;;;;;;11.38;3.28;;;12.80;99.90;;;;;;4958482;28;20051;-79
2022/05/16 02:59:32;;;;;;;11.55;3.25;;;12.80;99.90;;;;;;4957764;29;20119;-79
2022/05/16 03:02:03;;;;;;;12.02;3.50;;;12.80;99.90;;;;;;4956644;29;20043;-78
2022/05/16 03:04:29;;;;;;;13.05;3.40;;;12.80;99.90;;;;;;4957855;29;20476;-78
2022/05/16 03:06:55;;;;;;;13.02;3.70;;;12.80;99.90;;;;;;4956895;29;20071;-77
2022/05/16 03:09:23;;;;;;;12.30;4.05;;;12.70;99.90;;;;;;4958388;29;20055;-77
2022/05/16 03:11:48;;;;;;;12.35;3.42;;;12.70;99.90;;;;;;4957391;28;20199;-77
2022/05/16 03:14:15;;;;;;;9.15;3.05;;;12.80;99.90;;;;;;4957486;29;20141;-79
2022/05/16 03:16:41;;;;;;;14.93;3.47;;;12.70;99.90;;;;;;4959556;28;20051;-79
2022/05/16 03:19:06;;;;;;;12.05;3.60;;;12.80;99.90;;;;;;4958052;29;20126;-76
2022/05/16 03:21:33;;;;;;;12.80;3.55;;;12.70;99.90;;;;;;4956765;28;20599;-77
2022/05/16 03:23:59;;;;;;;10.93;3.28;;;12.70;99.90;;;;;;4957421;29;20058;-78
2022/05/16 03:26:25;;;;;;;10.00;3.47;;;12.70;99.90;;;;;;4956124;29;20102;-77
2022/05/16 03:28:51;;;;;;;17.80;3.72;;;12.70;99.90;;;;;;4957253;29;20182;-79
2022/05/16 03:31:17;;;;;;;15.02;4.10;;;12.70;99.90;;;;;;4957450;28;20131;-77
2022/05/16 03:33:43;;;;;;;14.10;3.33;;;12.70;99.90;;;;;;4957368;28;20098;-78
2022/05/16 03:36:09;;;;;;;15.57;3.70;;;12.70;99.90;;;;;;4940071;29;20043;-78
2022/05/16 03:41:20;;;;;;;9.82;3.20;;;12.70;99.90;;;;;;4957837;28;20062;-77
2022/05/16 03:43:45;;;;;;;15.07;3.40;;;12.70;99.90;;;;;;4956221;29;20054;-79
2022/05/16 03:46:12;;;;;;;13.00;3.58;;;12.70;99.90;;;;;;4956416;29;20415;-76
2022/05/16 03:48:38;;;;;;;8.27;3.08;;;12.70;99.90;;;;;;4956966;29;20051;-77
2022/05/16 03:51:06;;;;;;;12.77;3.40;;;12.70;99.90;;;;;;4957440;28;20136;-78
2022/05/16 03:53:35;;;;;;;14.10;3.55;;;12.70;99.90;;;;;;4956520;29;20077;-78
2022/05/16 03:56:02;;;;;;;10.77;3.28;;;12.60;99.90;;;;;;4958051;29;20047;-78
2022/05/16 03:58:28;;;;;;;13.90;3.45;;;12.60;99.90;;;;;;4963183;29;20054;-78
2022/05/16 04:00:54;;;;;;;16.63;3.80;;;12.70;99.90;;;;;;4961601;29;20360;-78
2022/05/16 04:03:20;;;;;;;13.77;4.03;;;12.70;99.90;;;;;;4958146;29;20400;-78
2022/05/16 04:05:45;;;;;;;9.05;3.22;;;12.70;99.90;;;;;;4957555;29;20158;-79
2022/05/16 04:08:11;;;;;;;14.20;3.50;;;12.70;99.90;;;;;;4956310;28;20074;-78
2022/05/16 04:10:37;;;;;;;12.90;2.97;;;12.80;99.90;;;;;;4956659;29;20066;-78
2022/05/16 04:13:03;;;;;;;11.68;2.55;;;12.80;99.90;;;;;;4956905;28;20395;-78
2022/05/16 04:15:29;;;;;;;10.35;3.28;;;12.80;99.90;;;;;;4956296;29;20059;-78
2022/05/16 04:17:55;;;;;;;16.08;3.70;;;12.90;99.90;;;;;;4958707;28;20062;-77
2022/05/16 04:20:21;;;;;;;11.25;2.90;;;12.90;99.90;;;;;;4940171;29;20045;-79
2022/05/16 04:22:47;;;;;;;8.30;2.88;;;13.00;99.90;;;;;;4957521;29;20087;-77
2022/05/16 04:25:17;;;;;;;12.20;2.70;;;13.00;99.90;;;;;;4955526;29;20494;-78
2022/05/16 04:27:42;;;;;;;10.70;3.10;;;13.00;99.90;;;;;;4955541;29;20493;-78
2022/05/16 04:30:09;;;;;;;12.23;2.50;;;12.90;99.90;;;;;;4956638;28;20047;-79
2022/05/16 04:32:35;;;;;;;11.88;3.30;;;12.90;99.90;;;;;;4955325;29;20486;-77
2022/05/16 04:35:01;;;;;;;13.40;3.30;;;13.00;99.90;;;;;;4942020;29;20098;-78
2022/05/16 04:37:32;;;;;;;15.52;3.50;;;13.10;99.90;;;;;;4964249;29;20376;-78
2022/05/16 04:39:59;;;;;;;9.48;2.75;;;13.20;99.90;;;;;;4972183;28;20060;-76
2022/05/16 04:42:41;;;;;;;;;;;13.30;99.90;;;;;;4972772;29;20103;-77
2022/05/16 04:45:28;;;;;;;12.20;3.17;;;13.40;99.90;;;;;;4973009;28;19985;-78
2022/05/16 04:47:57;;;;;;;11.15;3.13;;;13.50;99.90;;;;;;4972648;28;20050;-77
2022/05/16 04:50:32;;;;;;;11.20;2.90;;;13.40;99.90;;;;;;4972108;28;20047;-77
2022/05/16 04:52:58;;;;;;;12.13;2.65;;;13.50;99.90;;;;;;4987931;28;20070;-79
2022/05/16 04:55:25;;;;;;;13.52;3.65;;;13.60;99.90;;;;;;4971294;29;20053;-80
2022/05/16 04:57:51;;;;;;;9.93;2.78;;;13.60;99.90;;;;;;4983370;28;20076;-78
2022/05/16 05:00:19;;;;;;;10.13;2.90;;;13.60;99.90;;;;;;4965718;29;20055;-79
2022/05/16 05:02:45;;;;;;;10.27;3.53;;;13.60;99.90;;;;;;4963660;29;20082;-78
2022/05/16 05:05:12;;;;;;;9.70;3.88;;;13.60;99.90;;;;;;4964777;28;20185;-79
2022/05/16 05:07:38;;;;;;;10.18;2.95;;;13.60;99.90;;;;;;4962501;28;20130;-81
2022/05/16 05:15:36;;;;;;;11.90;3.45;;;13.80;99.90;;;;;;4966055;29;20086;-78
2022/05/16 05:18:03;;;;;;;15.63;3.58;;;13.80;99.90;;;;;;4975387;28;20079;-78
2022/05/16 05:20:29;;;;;;;12.40;3.03;;;13.90;99.90;;;;;;4986501;28;20051;-78
2022/05/16 05:22:55;;;;;;;9.93;3.08;;;13.90;99.90;;;;;;4977383;28;20050;-78
2022/05/16 05:25:21;;;;;;;9.13;3.47;;;14.00;99.90;;;;;;4960089;28;20058;-78
2022/05/16 05:27:51;;;;;;;10.25;3.05;;;14.00;99.90;;;;;;4979069;28;20476;-79
2022/05/16 05:30:21;;;;;;;16.13;3.10;;;14.20;99.90;;;;;;4963623;29;20054;-79
2022/05/16 05:32:47;;;;;;;14.07;3.63;;;14.30;99.90;;;;;;4964708;28;20070;-79
2022/05/16 05:35:14;;;;;;;12.63;3.33;;;14.40;99.90;;;;;;4946157;29;20047;-77
2022/05/16 05:37:39;;;;;;;11.90;3.22;;;14.50;99.90;;;;;;4979353;28;20050;-79
2022/05/16 05:40:07;;;;;;;12.68;3.22;;;14.60;99.90;;;;;;4966396;29;20047;-80
2022/05/16 05:42:34;;;;;;;10.45;3.40;;;14.70;99.90;;;;;;4966377;28;20456;-80
2022/05/16 05:45:00;;;;;;;13.10;2.70;;;14.80;99.90;;;;;;4968005;29;20065;-77
2022/05/16 05:47:27;;;;;;;12.37;3.50;;;14.90;99.90;;;;;;4985892;28;20051;-78
2022/05/16 05:49:53;;;;;;;;;;;15.00;99.90;;;;;;4972870;29;20074;-79
2022/05/16 05:52:19;;;;;;;12.80;3.08;;;15.00;99.90;;;;;;4968444;29;19922;-80
2022/05/16 05:54:46;;;;;;;10.93;3.15;;;15.10;99.90;;;;;;4963786;29;20055;-77
2022/05/16 05:57:14;;;;;;;12.23;3.50;;;15.20;99.90;;;;;;4962941;29;20058;-80
2022/05/16 05:59:40;;;;;;;12.75;3.47;;;15.20;99.90;;;;;;4961920;28;20058;-78
2022/05/16 06:02:08;;;;;;;15.18;3.35;;;15.30;99.90;;;;;;4960967;28;20081;-77
2022/05/16 06:04:34;;;;;;;10.80;3.45;;;15.40;99.90;;;;;;4977670;28;20053;-76
2022/05/16 06:07:00;;;;;;;11.60;3.20;;;15.40;99.90;;;;;;4960572;28;20082;-77
2022/05/16 06:09:27;;;;;;;10.63;3.10;;;15.50;99.90;;;;;;4961058;29;20051;-76
2022/05/16 06:11:53;;;;;;;10.85;3.55;;;15.70;99.90;;;;;;4959826;28;20137;-75
2022/05/16 06:14:18;;;;;;;13.70;3.40;;;15.70;99.90;;;;;;4961219;29;20097;-78
2022/05/16 06:16:44;;;;;;;12.00;3.88;;;15.80;99.90;;;;;;4960835;29;20070;-78
2022/05/16 06:19:10;;;;;;;12.20;3.50;;;15.80;99.90;;;;;;4960983;29;20047;-76
2022/05/16 06:21:36;;;;;;;17.70;4.18;;;15.90;99.90;;;;;;4957806;29;20047;-79
2022/05/16 06:24:02;;;;;;;13.33;3.47;;;16.00;99.90;;;;;;4957578;28;20055;-78
2022/05/16 06:26:28;;;;;;;13.38;3.53;;;16.00;99.90;;;;;;4955398;28;20043;-77
2022/05/16 06:28:55;;;;;;;9.30;3.35;;;16.10;99.90;;;;;;4956165;28;20078;-79
2022/05/16 06:31:21;;;;;;;;;;;16.20;99.90;;;;;;4955011;29;20087;-77
2022/05/16 06:33:47;;;;;;;12.37;3.10;;;16.20;99.90;;;;;;4972004;28;19991;-78
2022/05/16 06:36:14;;;;;;;14.38;3.35;;;16.30;99.90;;;;;;4940867;29;20058;-77
2022/05/16 06:38:39;;;;;;;11.85;3.97;;;16.40;99.90;;;;;;4955587;29;20051;-78
2022/05/16 06:41:06;;;;;;;14.30;3.60;;;16.50;99.90;;;;;;4955129;28;20054;-78
2022/05/16 06:43:33;;;;;;;16.45;3.55;;;16.50;99.90;;;;;;4954702;29;20043;-77
2022/05/16 06:45:59;;;;;;;9.88;2.70;;;16.70;99.90;;;;;;4953770;29;20073;-79
2022/05/16 06:48:25;;;;;;;14.48;3.40;;;16.70;99.90;;;;;;4954563;29;20055;-77
2022/05/16 06:50:52;;;;;;;14.02;3.72;;;16.80;99.90;;;;;;4952871;29;20491;-76
2022/05/16 06:53:21;;;;;;;10.82;3.15;;;17.00;99.90;;;;;;4953327;29;20137;-78
2022/05/16 06:55:47;;;;;;;14.02;3.50;;;17.00;99.90;;;;;;4968969;28;20052;-76
2022/05/16 06:58:13;;;;;;;12.73;3.65;;;17.10;99.90;;;;;;4954566;29;20047;-74
2022/05/16 07:00:38;;;;;;;15.17;3.30;;;17.30;99.90;;;;;;4937892;29;20071;-78
2022/05/16 07:03:05;;;;;;;13.00;3.17;;;17.40;99.90;;;;;;4954661;28;20435;-78
2022/05/16 07:05:32;;;;;;;14.60;3.30;;;17.50;99.90;;;;;;4954691;28;20090;-78
2022/05/16 07:07:57;;;;;;;13.18;3.25;;;17.60;99.90;;;;;;4954316;29;20399;-80
2022/05/16 07:10:25;;;;;;;9.33;2.53;;;17.60;99.90;;;;;;4952946;28;20051;-75
2022/05/16 07:12:51;;;;;;;14.75;4.30;;;17.70;99.90;;;;;;4953624;28;20057;-77
2022/05/16 07:15:17;;;;;;;12.20;3.17;;;17.80;99.90;;;;;;4958167;29;20063;-79
2022/05/16 07:17:43;;;;;;;10.55;3.10;;;17.90;99.90;;;;;;4940546;29;20554;-77
2022/05/16 07:20:10;;;;;;;11.25;2.97;;;18.10;99.90;;;;;;4957865;29;20043;-77
2022/05/16 07:22:41;;;;;;;11.98;3.83;;;18.20;99.90;;;;;;4957385;28;20047;-76
2022/05/16 07:25:08;;;;;;;16.25;3.28;;;18.30;99.90;;;;;;4957764;29;20060;-76
2022/05/16 07:30:19;;;;;;;11.80;3.38;;;18.70;99.90;;;;;;4956913;29;20118;-76
2022/05/16 07:32:46;;;;;;;14.13;3.30;;;18.90;99.90;;;;;;4956995;29;20511;-77
2022/05/16 07:35:14;;;;;;;14.50;3.22;;;19.00;99.90;;;;;;4957753;28;20055;-74
2022/05/16 07:37:41;;;;;;;10.55;3.03;;;19.10;99.90;;;;;;4957175;29;20134;-76
2022/05/16 07:40:09;;;;;;;11.88;3.20;;;19.10;99.90;;;;;;4972125;28;20051;-77
2022/05/16 07:42:35;;;;;;;11.57;2.95;;;19.10;99.80;;;;;;4957614;29;20408;-78
2022/05/16 07:45:02;;;;;;;9.48;3.30;;;19.00;99.90;;;;;;4956766;28;20039;-77
2022/05/16 07:47:32;;;;;;;11.90;3.53;;;19.00;99.90;;;;;;4955590;29;20039;-77
2022/05/16 07:49:59;;;;;;;16.50;3.50;;;19.10;99.90;;;;;;4956004;29;20055;-77
2022/05/16 07:52:25;;;;;;;;;;;19.10;99.90;;;;;;4956203;29;20106;-77
2022/05/16 07:54:52;;;;;;;10.60;2.63;;;19.20;99.90;;;;;;4956050;28;19985;-78
2022/05/16 07:57:18;;;;;;;;;;;19.40;99.90;;;;;;4957498;29;20047;-77
2022/05/16 07:59:44;;;;;;;12.27;3.47;;;19.50;99.90;;;;;;4957585;29;20010;-75
2022/05/16 08:02:12;;;;;;;11.83;2.87;;;19.60;99.60;;;;;;4955436;29;20047;-77
2022/05/16 08:04:38;;;;;;;11.65;2.85;;;19.80;99.20;;;;;;4956687;28;20392;-76
2022/05/16 08:07:04;;;;;;;11.27;3.23;;;19.90;99.00;;;;;;4956489;29;20074;-76
2022/05/16 08:12:30;;;;;;;9.55;3.28;;;20.20;98.60;;;;;;4956664;29;20059;-77
2022/05/16 08:14:55;;;;;;;10.68;3.05;;;20.30;97.80;;;;;;4958156;28;20055;-76
2022/05/16 08:17:22;;;;;;;9.67;2.70;;;20.50;97.60;;;;;;4960697;28;20105;-77
2022/05/16 08:19:48;;;;;;;14.50;3.33;;;20.60;96.70;;;;;;4969461;29;20051;-78
2022/05/16 08:22:15;;;;;;;14.27;3.53;;;20.70;96.40;;;;;;4962550;29;20043;-78
2022/05/16 08:24:41;;;;;;;16.63;3.22;;;20.90;95.60;;;;;;4965081;28;20051;-77
2022/05/16 08:27:08;;;;;;;12.60;2.85;;;21.00;95.50;;;;;;4980569;28;20043;-77
2022/05/16 08:29:34;;;;;;;12.40;2.90;;;21.20;94.80;;;;;;4963487;28;20066;-81
2022/05/16 08:32:01;;;;;;;15.07;3.40;;;21.30;94.30;;;;;;4973257;28;20043;-78
2022/05/16 08:34:27;;;;;;;15.98;3.47;;;21.50;94.20;;;;;;4977072;29;20091;-77
2022/05/16 08:39:52;;;;;;;10.45;3.00;;;22.00;93.40;;;;;;4959698;29;20051;-76
2022/05/16 08:42:35;;;;;;;12.10;2.55;;;22.20;91.70;;;;;;4945164;29;20469;-78
2022/05/16 08:45:11;;;;;;;10.45;2.95;;;22.30;91.70;;;;;;4960888;28;20047;-76
2022/05/16 08:47:54;;;;;;;9.65;2.55;;;22.50;90.60;;;;;;4969612;29;20047;-77
2022/05/16 08:50:40;;;;;;;13.32;3.05;;;22.50;90.60;;;;;;4975504;28;20131;-78
2022/05/16 08:53:34;;;;;;;17.88;3.25;;;22.50;90.30;;;;;;4965390;28;20067;-80
2022/05/16 08:56:05;;;;;;;13.60;2.97;;;22.40;90.00;;;;;;4962247;29;20059;-77
2022/05/16 08:58:49;;;;;;;11.57;3.35;;;22.50;90.30;;;;;;4969524;29;20483;-79
2022/05/16 09:01:29;;;;;;;14.65;3.17;;;22.50;90.20;;;;;;4952208;29;20053;-76
2022/05/16 09:04:01;;;;;;;12.38;2.80;;;22.60;90.20;;;;;;4962269;29;20137;-77
2022/05/16 09:06:39;;;;;;;11.82;3.17;;;22.60;89.20;;;;;;4957248;28;20046;-78
2022/05/16 09:09:16;;;;;;;10.80;2.70;;;22.70;88.70;;;;;;4957209;28;20434;-76
2022/05/16 09:12:11;;;;;;;14.32;3.50;;;22.80;87.80;;;;;;4956031;29;20500;-76
2022/05/16 09:14:46;;;;;;;16.35;3.20;;;22.90;87.90;;;;;;4958620;29;20051;-77
2022/05/16 09:17:38;;;;;;;10.93;3.22;;;23.10;85.70;;;;;;4955007;29;20109;-77
2022/05/16 09:20:30;;;;;;;12.98;3.15;;;23.30;84.30;;;;;;4956917;28;20120;-77
2022/05/16 09:23:10;;;;;;;10.25;3.58;;;23.50;82.90;;;;;;4955245;29;20059;-78
2022/05/16 09:25:56;;;;;;;9.90;2.92;;;23.40;83.30;;;;;;4955995;28;20047;-78
2022/05/16 09:28:35;;;;;;;12.20;2.90;;;23.50;82.90;;;;;;4971641;28;20051;-78
2022/05/16 09:31:25;;;;;;;13.18;3.10;;;23.60;82.50;;;;;;4955701;29;20059;-77
2022/05/16 09:33:55;;;;;;;10.68;3.00;;;23.70;83.40;;;;;;4956282;29;20059;-78
2022/05/16 09:36:33;;;;;;;16.38;3.25;;;23.90;82.00;;;;;;4955300;28;20506;-76
2022/05/16 09:38:58;;;;;;;12.00;3.22;;;23.90;82.20;;;;;;4955948;28;20039;-76
2022/05/16 09:41:51;;;;;;;9.37;3.20;;;24.10;80.30;;;;;;4954758;28;20055;-78
2022/05/16 09:44:26;;;;;;;10.05;2.92;;;24.30;78.90;;;;;;4954403;29;20207;-77
2022/05/16 09:47:24;;;;;;;11.40;3.42;;;24.60;78.10;;;;;;4954262;29;20079;-76
2022/05/16 09:50:05;;;;;;;13.77;3.65;;;24.80;77.20;;;;;;4955440;29;20073;-78
2022/05/16 09:52:46;;;;;;;11.70;3.50;;;25.10;76.20;;;;;;4953805;29;20519;-79
2022/05/16 09:55:27;;;;;;;11.43;3.58;;;25.40;76.50;;;;;;4955345;29;20043;-77
2022/05/16 09:58:01;;;;;;;13.48;3.30;;;25.50;73.80;;;;;;4955535;28;20051;-76
2022/05/16 10:00:32;;;;;;;11.75;3.35;;;25.70;74.30;;;;;;4955503;29;20039;-80
2022/05/16 10:03:19;;;;;;;11.05;3.70;;;25.90;72.00;;;;;;4953782;28;20535;-77
2022/05/16 10:05:47;;;;;;;18.52;3.50;;;26.00;71.50;;;;;;4955150;29;20059;-75
2022/05/16 10:08:22;;;;;;;11.82;3.95;;;25.90;70.70;;;;;;4953417;29;20062;-78
2022/05/16 10:10:48;;;;;;;11.77;3.28;;;25.70;71.10;;;;;;4955660;29;20058;-78
2022/05/16 10:13:16;;;;;;;14.80;4.22;;;25.70;72.60;;;;;;4955163;28;20055;-78
2022/05/16 10:15:43;;;;;;;12.90;3.70;;;25.60;72.30;;;;;;4954936;29;20076;-77
2022/05/16 10:18:16;;;;;;;11.02;3.90;;;25.50;72.40;;;;;;4955643;29;20051;-77
2022/05/16 10:20:46;;;;;;;9.70;3.58;;;25.20;73.20;;;;;;4956425;29;20048;-76
2022/05/16 10:23:24;;;;;;;13.43;3.80;;;25.30;73.80;;;;;;4956973;28;20048;-78
2022/05/16 10:25:54;;;;;;;11.95;3.85;;;25.30;73.20;;;;;;4956528;28;20051;-77
2022/05/16 10:28:40;;;;;;;14.73;3.67;;;25.20;73.00;;;;;;4957093;28;20043;-77
2022/05/16 10:34:04;;;;;;;13.50;3.60;;;25.00;74.40;;;;;;4957689;29;20047;-78
2022/05/16 10:36:33;;;;;;;13.00;3.55;;;25.00;74.40;;;;;;4956134;29;20051;-77
2022/05/16 10:39:09;;;;;;;9.10;3.40;;;24.90;74.60;;;;;;4956014;28;20121;-78
2022/05/16 10:41:47;;;;;;;11.38;3.53;;;24.80;73.50;;;;;;4955623;28;20055;-75
2022/05/16 10:44:43;;;;;;;16.98;4.25;;;24.60;74.40;;;;;;4971994;28;20090;-77
2022/05/16 10:47:31;;;;;;;14.82;3.78;;;24.60;74.50;;;;;;4957015;28;20134;-77
2022/05/16 10:50:21;;;;;;;15.95;3.50;;;24.40;74.60;;;;;;4958338;28;20379;-76
2022/05/16 10:52:56;;;;;;;11.85;3.70;;;24.50;75.80;;;;;;4959206;29;20134;-79
2022/05/16 10:55:23;;;;;;;9.18;3.75;;;24.30;76.40;;;;;;4973398;28;20048;-81
2022/05/16 10:58:19;;;;;;;9.63;3.80;;;24.20;76.00;;;;;;4958119;28;20102;-78
2022/05/16 11:00:52;;;;;;;;;;;24.10;76.20;;;;;;4958398;28;20055;-80
2022/05/16 11:03:51;;;;;;;13.20;4.18;;;24.10;76.70;;;;;;4958076;29;19922;-79
2022/05/16 11:06:37;;;;;;;13.18;3.63;;;24.10;76.80;;;;;;4958761;29;20043;-78
2022/05/16 11:09:15;;;;;;;14.70;3.83;;;24.10;76.00;;;;;;4973033;28;20061;-80
2022/05/16 11:12:22;;;;;;;10.57;3.47;;;24.00;76.90;;;;;;4959283;29;20090;-77
2022/05/16 11:15:15;;;;;;;14.07;3.50;;;23.90;78.40;;;;;;4961081;28;20050;-78
2022/05/16 11:17:50;;;;;;;11.30;3.90;;;24.10;78.70;;;;;;4956758;29;20066;-79
2022/05/16 11:20:34;;;;;;;11.95;3.70;;;24.10;78.90;;;;;;4958166;29;20132;-81
2022/05/16 11:23:23;;;;;;;11.55;3.80;;;24.10;79.90;;;;;;4958684;28;20418;-79
2022/05/16 11:26:12;;;;;;;11.68;3.50;;;24.20;79.40;;;;;;4959571;28;20073;-79
2022/05/16 11:29:18;;;;;;;12.15;3.30;;;24.30;80.00;;;;;;4960735;28;20051;-78
2022/05/16 11:32:16;;;;;;;7.53;2.35;;;24.30;80.20;;;;;;4960126;28;20047;-78
2022/05/16 11:34:51;;;;;;;9.35;2.78;;;24.60;78.90;;;;;;4951071;29;20143;-75
2022/05/16 11:37:32;;;;;;;10.50;2.70;;;24.70;78.00;;;;;;4959377;29;20506;-79
2022/05/16 11:40:09;;;;;;;12.27;2.70;;;24.80;78.40;;;;;;4960593;29;20384;-80
2022/05/16 11:42:48;;;;;;;8.20;3.33;;;24.70;79.90;;;;;;4961089;28;20477;-76
2022/05/16 11:45:16;;;;;;;7.25;2.80;;;24.80;78.60;;;;;;4976201;28;20484;-79
2022/05/16 11:47:52;;;;;;;10.73;3.25;;;24.90;78.30;;;;;;4963832;29;20047;-79
2022/05/16 11:50:30;;;;;;;13.75;3.58;;;24.80;78.00;;;;;;4965802;28;20075;-80
2022/05/16 11:53:31;;;;;;;10.40;3.00;;;25.00;78.00;;;;;;4960997;28;20391;-78
2022/05/16 12:01:39;;;;;;;9.98;3.08;;;25.30;77.60;;;;;;4959011;29;20495;-78
2022/05/16 12:04:21;;;;;;;12.02;3.33;;;25.40;77.80;;;;;;4959585;29;20099;-80
2022/05/16 12:07:12;;;;;;;8.45;3.70;;;25.20;78.20;;;;;;4959289;28;20062;-77
2022/05/16 12:09:55;;;;;;;7.72;3.53;;;25.30;78.40;;;;;;4959168;28;20047;-78
2022/05/16 12:12:32;;;;;;;9.40;3.92;;;25.30;76.10;;;;;;4959504;28;20487;-79
2022/05/16 12:15:13;;;;;;;10.82;3.45;;;24.90;77.50;;;;;;4973514;28;20051;-80
2022/05/16 12:17:52;;;;;;;10.35;3.97;;;25.00;78.20;;;;;;4957547;29;20421;-79
2022/05/16 12:20:37;;;;;;;12.57;3.70;;;24.90;78.50;;;;;;4957830;28;20432;-78
2022/05/16 12:23:04;;;;;;;12.02;4.03;;;24.90;78.90;;;;;;4956657;29;20472;-78
2022/05/16 12:25:32;;;;;;;11.57;4.15;;;24.70;81.40;;;;;;4971683;28;20051;-81
2022/05/16 12:28:13;;;;;;;10.95;3.70;;;24.80;81.00;;;;;;4956762;29;20078;-79
2022/05/16 12:30:51;;;;;;;11.93;3.90;;;24.90;82.30;;;;;;4972445;28;20130;-81
2022/05/16 12:33:25;;;;;;;9.20;3.67;;;25.00;82.60;;;;;;4956360;29;20106;-81
2022/05/16 12:35:53;;;;;;;11.23;4.20;;;25.10;82.50;;;;;;4959174;28;20047;-80
2022/05/16 12:38:22;;;;;;;12.77;3.47;;;24.80;81.60;;;;;;4942938;29;20054;-78
2022/05/16 12:41:07;;;;;;;7.28;3.00;;;24.90;83.10;;;;;;4959711;29;20043;-79
2022/05/16 12:43:35;;;;;;;8.18;2.95;;;25.20;81.90;;;;;;4957587;29;20122;-77
2022/05/16 12:46:28;;;;;;;10.75;3.50;;;25.30;80.70;;;;;;4957256;28;20083;-78
2022/05/16 12:49:32;;;;;;;11.13;3.45;;;25.50;79.70;;;;;;4971756;28;20047;-79
2022/05/16 12:52:05;;;;;;;9.35;3.40;;;25.80;79.60;;;;;;4955436;29;20101;-77
2022/05/16 12:54:52;;;;;;;12.05;3.17;;;26.00;78.40;;;;;;4955288;29;20341;-78
2022/05/16 12:57:38;;;;;;;9.98;3.05;;;26.10;78.20;;;;;;4956570;29;20047;-79
2022/05/16 13:00:08;;;;;;;7.75;3.67;;;26.30;77.00;;;;;;4956434;29;20058;-79
2022/05/16 13:03:22;;;;;;;10.88;3.63;;;26.20;75.30;;;;;;4958701;29;20043;-81
2022/05/16 13:06:10;;;;;;;7.68;3.40;;;26.30;74.50;;;;;;4935362;29;20107;-78
2022/05/16 13:08:50;;;;;;;11.32;3.17;;;25.70;74.60;;;;;;4954203;29;20106;-79
2022/05/16 13:11:19;;;;;;;11.27;3.65;;;25.80;74.60;;;;;;4953621;28;20154;-78
2022/05/16 13:13:47;;;;;;;9.27;4.68;;;25.90;75.70;;;;;;4956177;29;20063;-78
2022/05/16 13:16:30;;;;;;;16.83;5.15;;;26.10;75.40;;;;;;4959017;28;20099;-79
2022/05/16 13:19:00;;;;;;;12.82;4.30;;;25.30;76.10;;;;;;4957003;28;20047;-79
2022/05/16 13:21:49;;;;;;;11.85;4.90;;;25.70;76.80;;;;;;4940404;29;20062;-79
2022/05/16 13:24:15;;;;;;;14.05;5.78;;;25.80;77.00;;;;;;4956684;29;20126;-80
2022/05/16 13:29:34;;;;;;;12.57;7.07;;;25.70;76.60;;;;;;4944778;29;20047;-80
2022/05/16 13:32:27;;;;;;;14.75;7.55;;;25.60;77.20;;;;;;4956543;29;20043;-81
2022/05/16 13:35:05;;;;;;;19.25;8.02;;;25.80;77.80;;;;;;4942691;29;20051;-81
2022/05/16 13:37:43;;;;;;;16.05;8.15;;;25.40;77.50;;;;;;4957350;29;20125;-82